Time;durP1;ratioP1;P1;durP2;ratioP2;P2;SDS_P1;SDS_P2;PMS_P1;PMS_P2;Temp;Humidity;BMP_temperature;BMP_pressure;BME280_temperature;BME280_humidity;BME280_pressure;Samples;Min_cycle;Max_cycle;Signal;HPM_P1;HPM_P2
2022/08/08 00:02:09;;;;;;;2.47;0.93;;;14.80;99.90;;;;;;4332428;28;656436;-65
2022/08/08 00:04:58;;;;;;;2.73;0.93;;;14.80;99.90;;;;;;4355167;28;656349;-66
2022/08/08 00:07:50;;;;;;;2.30;1.10;;;14.70;99.90;;;;;;4357375;28;656281;-65
2022/08/08 00:10:41;;;;;;;2.53;1.03;;;14.70;99.90;;;;;;4342942;28;657080;-64
2022/08/08 00:13:31;;;;;;;1.60;0.90;;;14.70;99.90;;;;;;4355166;28;656462;-64
2022/08/08 00:16:23;;;;;;;4.07;0.90;;;14.70;99.90;;;;;;4352351;28;657356;-63
2022/08/08 00:19:14;;;;;;;1.93;0.90;;;14.70;99.90;;;;;;4325222;28;656805;-65
2022/08/08 00:22:03;;;;;;;1.53;1.00;;;14.60;99.90;;;;;;4354929;28;656763;-63
2022/08/08 00:24:52;;;;;;;1.33;0.83;;;14.60;99.90;;;;;;4338525;28;657153;-65
2022/08/08 00:27:39;;;;;;;1.60;1.03;;;14.50;99.90;;;;;;4367974;28;656396;-64
2022/08/08 00:30:26;;;;;;;1.80;0.97;;;14.50;99.90;;;;;;4340925;28;656374;-63
2022/08/08 00:33:16;;;;;;;2.93;1.20;;;14.50;99.90;;;;;;4358073;28;656615;-63
2022/08/08 00:36:06;;;;;;;6.60;1.10;;;14.50;99.90;;;;;;4346942;28;658674;-64
2022/08/08 00:38:56;;;;;;;4.40;1.27;;;14.40;99.90;;;;;;4343560;28;658325;-65
2022/08/08 00:42:04;;;;;;;0.70;0.70;;;14.40;99.90;;;;;;4353929;28;656968;-63
2022/08/08 00:45:26;;;;;;;3.23;1.00;;;14.40;99.90;;;;;;4355053;28;656540;-64
2022/08/08 00:48:44;;;;;;;4.30;1.30;;;14.40;99.90;;;;;;4347622;28;657106;-64
2022/08/08 00:51:59;;;;;;;2.07;1.00;;;14.40;99.90;;;;;;4360199;28;656396;-64
2022/08/08 00:55:14;;;;;;;4.63;1.50;;;14.30;99.90;;;;;;4326642;28;657920;-64
2022/08/08 00:58:25;;;;;;;3.60;1.10;;;14.30;99.90;;;;;;4323196;28;659044;-63
2022/08/08 01:01:14;;;;;;;2.63;1.07;;;14.20;99.90;;;;;;4327779;28;657200;-63
2022/08/08 01:04:22;;;;;;;1.93;1.10;;;14.10;99.90;;;;;;4357274;28;656865;-63
2022/08/08 01:07:39;;;;;;;11.33;1.47;;;14.00;99.90;;;;;;4350283;28;656520;-63
2022/08/08 01:10:42;;;;;;;5.40;1.27;;;13.90;99.90;;;;;;4312352;28;657780;-63
2022/08/08 01:13:53;;;;;;;3.47;1.17;;;13.80;99.90;;;;;;4347150;28;657325;-64
2022/08/08 01:16:48;;;;;;;6.33;1.37;;;13.80;99.90;;;;;;4335173;28;657237;-64
2022/08/08 01:20:17;;;;;;;4.70;1.27;;;13.80;99.90;;;;;;4355805;28;656510;-65
2022/08/08 01:23:56;;;;;;;2.77;1.17;;;13.70;99.90;;;;;;4358510;28;656590;-63
2022/08/08 01:27:16;;;;;;;2.90;1.20;;;13.60;99.90;;;;;;4269364;29;657616;-63
2022/08/08 01:30:45;;;;;;;1.70;1.00;;;13.50;99.90;;;;;;4356332;28;657429;-65
2022/08/08 01:33:57;;;;;;;4.70;1.10;;;13.50;99.90;;;;;;4329068;28;657101;-65
2022/08/08 01:37:23;;;;;;;2.23;0.97;;;13.50;99.90;;;;;;4357805;28;656467;-64
2022/08/08 01:40:16;;;;;;;7.67;1.20;;;13.50;99.90;;;;;;4323578;28;657098;-64
2022/08/08 01:43:06;;;;;;;1.60;1.00;;;13.60;99.90;;;;;;4356352;28;657805;-63
2022/08/08 01:45:57;;;;;;;4.30;1.00;;;13.60;99.90;;;;;;4355298;28;657199;-64
2022/08/08 01:48:52;;;;;;;3.67;1.10;;;13.60;99.90;;;;;;4351127;28;656967;-64
2022/08/08 01:51:50;;;;;;;3.27;1.10;;;13.60;99.90;;;;;;4353442;28;657434;-63
2022/08/08 01:54:47;;;;;;;2.90;1.07;;;13.60;99.90;;;;;;4314597;28;657271;-64
2022/08/08 01:57:37;;;;;;;3.90;1.20;;;13.60;99.90;;;;;;4331062;28;656546;-63
2022/08/08 02:00:26;;;;;;;3.17;1.00;;;13.60;99.90;;;;;;4335589;28;656570;-63
2022/08/08 02:03:23;;;;;;;1.83;1.10;;;13.60;99.90;;;;;;4337060;28;656911;-64
2022/08/08 02:06:16;;;;;;;2.27;1.10;;;13.60;99.90;;;;;;4318341;28;656803;-65
2022/08/08 02:09:09;;;;;;;4.10;1.23;;;13.60;99.90;;;;;;4335493;28;656388;-63
2022/08/08 02:11:56;;;;;;;4.77;1.00;;;13.60;99.90;;;;;;4310993;28;657369;-64
2022/08/08 02:14:48;;;;;;;2.57;1.10;;;13.70;99.90;;;;;;4358776;28;656994;-63
2022/08/08 02:17:40;;;;;;;2.13;1.27;;;13.70;99.90;;;;;;4311809;28;656607;-65
2022/08/08 02:20:29;;;;;;;1.33;0.87;;;13.70;99.90;;;;;;4333833;28;658906;-64
2022/08/08 02:23:21;;;;;;;3.47;0.97;;;13.70;99.90;;;;;;4338601;28;656562;-63
2022/08/08 02:26:11;;;;;;;4.80;1.30;;;13.70;99.90;;;;;;4337180;28;656983;-64
2022/08/08 02:29:13;;;;;;;6.57;1.23;;;13.80;99.90;;;;;;4336528;28;657397;-63
2022/08/08 02:32:19;;;;;;;3.10;1.10;;;13.90;99.90;;;;;;4306353;28;657381;-65
2022/08/08 02:35:36;;;;;;;2.40;1.20;;;14.00;99.90;;;;;;4335576;28;656847;-64
2022/08/08 02:38:34;;;;;;;8.13;1.40;;;14.10;99.90;;;;;;4297059;28;656932;-64
2022/08/08 02:41:49;;;;;;;3.10;1.30;;;14.10;99.90;;;;;;4326084;28;657033;-66
2022/08/08 02:44:58;;;;;;;3.00;1.17;;;14.10;99.90;;;;;;4301013;28;656719;-64
2022/08/08 02:48:18;;;;;;;2.97;1.10;;;14.20;99.90;;;;;;4315482;28;656806;-64
2022/08/08 02:51:35;;;;;;;3.70;1.23;;;14.30;99.90;;;;;;4310762;28;657041;-65
2022/08/08 02:54:49;;;;;;;1.87;1.10;;;14.30;99.90;;;;;;4299800;28;656562;-64
2022/08/08 02:58:07;;;;;;;3.70;1.20;;;14.40;99.90;;;;;;4324024;28;657250;-63
2022/08/08 03:01:31;;;;;;;9.43;1.20;;;14.40;99.90;;;;;;4338914;28;657606;-63
2022/08/08 03:04:47;;;;;;;3.80;0.90;;;14.40;99.90;;;;;;4342753;28;657142;-63
2022/08/08 03:08:12;;;;;;;4.97;1.20;;;14.50;99.90;;;;;;4348091;28;656754;-64
2022/08/08 03:11:33;;;;;;;3.30;1.13;;;14.50;99.90;;;;;;4342828;28;656476;-64
2022/08/08 03:14:45;;;;;;;4.80;1.17;;;14.50;99.90;;;;;;4314836;28;656585;-64
2022/08/08 03:17:37;;;;;;;5.53;1.13;;;14.50;99.90;;;;;;4334971;28;657455;-64
2022/08/08 03:20:24;;;;;;;5.07;1.50;;;14.50;99.90;;;;;;4330029;28;656289;-66
2022/08/08 03:23:13;;;;;;;3.03;1.10;;;14.50;99.90;;;;;;4340830;28;656466;-65
2022/08/08 03:26:00;;;;;;;4.17;1.00;;;14.50;99.90;;;;;;4344364;28;656711;-64
2022/08/08 03:28:48;;;;;;;5.13;1.20;;;14.50;99.90;;;;;;4361624;28;656847;-65
2022/08/08 03:34:41;;;;;;;2.47;1.10;;;14.50;99.90;;;;;;4307975;28;656877;-65
2022/08/08 03:37:28;;;;;;;2.80;1.10;;;14.40;99.90;;;;;;4357442;28;657551;-64
2022/08/08 03:40:17;;;;;;;2.80;1.00;;;14.50;99.90;;;;;;4330990;28;656613;-65
2022/08/08 03:43:04;;;;;;;3.57;1.00;;;14.50;99.90;;;;;;4359305;28;656599;-64
2022/08/08 03:45:51;;;;;;;2.13;1.00;;;14.50;99.90;;;;;;4338073;28;658763;-64
2022/08/08 03:48:38;;;;;;;2.20;1.00;;;14.50;99.90;;;;;;4353030;28;657068;-64
2022/08/08 03:51:25;;;;;;;1.23;1.00;;;14.50;99.90;;;;;;4338071;28;657006;-65
2022/08/08 03:54:12;;;;;;;4.17;1.13;;;14.60;99.90;;;;;;4374658;28;657118;-64
2022/08/08 03:57:01;;;;;;;3.13;0.97;;;14.60;99.90;;;;;;4364588;28;656493;-65
2022/08/08 03:59:49;;;;;;;6.73;1.20;;;14.50;99.90;;;;;;4374815;28;656495;-64
2022/08/08 04:02:36;;;;;;;2.67;0.90;;;14.60;99.90;;;;;;4347526;28;657302;-64
2022/08/08 04:05:25;;;;;;;2.97;1.10;;;14.60;99.90;;;;;;4370148;28;656694;-64
2022/08/08 04:08:17;;;;;;;3.70;1.00;;;14.70;99.90;;;;;;4349646;28;657732;-64
2022/08/08 04:11:05;;;;;;;1.73;0.90;;;14.80;99.90;;;;;;4350695;28;657370;-64
2022/08/08 04:13:53;;;;;;;2.43;1.00;;;14.80;99.90;;;;;;4362432;28;657117;-64
2022/08/08 04:16:40;;;;;;;4.17;1.27;;;14.90;99.90;;;;;;4346551;28;656703;-64
2022/08/08 04:19:27;;;;;;;2.67;1.13;;;15.00;99.90;;;;;;4369097;28;657799;-64
2022/08/08 04:22:15;;;;;;;3.77;1.10;;;15.10;99.90;;;;;;4365128;28;657095;-65
2022/08/08 04:25:02;;;;;;;3.25;1.00;;;15.10;99.90;;;;;;4374039;28;656461;-64
2022/08/08 04:27:49;;;;;;;2.40;1.00;;;15.10;99.90;;;;;;4367308;28;656876;-63
2022/08/08 04:30:38;;;;;;;1.73;1.00;;;15.10;99.90;;;;;;4355995;28;656705;-64
2022/08/08 04:33:25;;;;;;;3.22;1.38;;;15.20;99.90;;;;;;4354443;28;656943;-65
2022/08/08 04:36:12;;;;;;;2.40;1.30;;;15.20;99.90;;;;;;4370597;28;657746;-64
2022/08/08 04:38:59;;;;;;;1.97;1.20;;;15.30;99.90;;;;;;4363319;28;656905;-64
2022/08/08 04:41:46;;;;;;;7.63;1.30;;;15.30;99.90;;;;;;4353427;28;657328;-64
2022/08/08 04:44:33;;;;;;;2.13;1.10;;;15.40;99.90;;;;;;4376144;28;657171;-64
2022/08/08 04:47:22;;;;;;;3.00;1.00;;;15.40;99.90;;;;;;4357431;28;656904;-65
2022/08/08 04:50:09;;;;;;;2.30;1.20;;;15.40;99.90;;;;;;4376975;28;657427;-64
2022/08/08 04:52:57;;;;;;;4.70;1.40;;;15.50;99.90;;;;;;4347927;28;657624;-64
2022/08/08 04:55:44;;;;;;;2.33;1.13;;;15.40;99.90;;;;;;4375375;28;656596;-64
2022/08/08 04:58:31;;;;;;;3.37;1.33;;;15.50;99.90;;;;;;4354623;28;657008;-64
2022/08/08 05:01:18;;;;;;;2.90;1.13;;;15.40;99.90;;;;;;4368105;28;657277;-64
2022/08/08 05:04:06;;;;;;;3.37;1.00;;;15.60;99.90;;;;;;4360385;28;656792;-65
2022/08/08 05:06:54;;;;;;;4.23;1.07;;;15.60;99.90;;;;;;4372576;28;657114;-64
2022/08/08 05:09:41;;;;;;;1.93;0.90;;;15.60;99.90;;;;;;4349279;28;656733;-64
2022/08/08 05:12:28;;;;;;;3.43;1.10;;;15.70;99.90;;;;;;4381025;28;657041;-64
2022/08/08 05:15:15;;;;;;;1.70;1.23;;;15.70;99.90;;;;;;4366808;28;656993;-65
2022/08/08 05:18:02;;;;;;;4.60;1.00;;;15.80;99.90;;;;;;4377643;28;656482;-64
2022/08/08 05:20:51;;;;;;;2.13;0.90;;;15.80;99.90;;;;;;4377346;28;656624;-64
2022/08/08 05:23:38;;;;;;;2.53;1.00;;;15.90;99.90;;;;;;4357837;28;658825;-64
2022/08/08 05:26:25;;;;;;;1.13;0.70;;;15.90;99.90;;;;;;4362011;28;657319;-65
2022/08/08 05:29:12;;;;;;;4.97;0.87;;;16.00;99.90;;;;;;4370462;28;657126;-64
2022/08/08 05:32:00;;;;;;;3.33;1.00;;;16.10;99.90;;;;;;4370467;28;656593;-65
2022/08/08 05:34:48;;;;;;;2.13;1.07;;;16.30;99.90;;;;;;4361659;28;657973;-64
2022/08/08 05:37:38;;;;;;;4.30;1.00;;;16.40;99.90;;;;;;4349370;28;656302;-65
2022/08/08 05:40:26;;;;;;;6.67;1.20;;;16.50;99.90;;;;;;4349617;28;657176;-64
2022/08/08 05:43:15;;;;;;;5.17;1.00;;;16.70;99.90;;;;;;4367238;28;657447;-64
2022/08/08 05:46:04;;;;;;;4.87;1.20;;;16.80;99.90;;;;;;4340105;28;657111;-64
2022/08/08 05:48:51;;;;;;;1.10;0.90;;;17.00;99.90;;;;;;4347848;28;657275;-65
2022/08/08 05:51:38;;;;;;;4.03;0.90;;;17.10;99.90;;;;;;4377594;28;657837;-64
2022/08/08 05:54:26;;;;;;;2.17;0.90;;;17.20;99.90;;;;;;4356371;28;657135;-65
2022/08/08 05:57:15;;;;;;;2.73;0.90;;;17.40;99.90;;;;;;4373644;28;656592;-64
2022/08/08 06:00:04;;;;;;;4.20;1.00;;;17.60;99.90;;;;;;4354405;28;657562;-64
2022/08/08 06:05:56;;;;;;;4.53;0.77;;;17.90;99.90;;;;;;4331448;28;656556;-65
2022/08/08 06:08:44;;;;;;;4.23;0.80;;;18.10;99.90;;;;;;4377615;28;657431;-64
2022/08/08 06:11:33;;;;;;;4.63;0.93;;;18.30;99.90;;;;;;4340400;28;656570;-64
2022/08/08 06:14:20;;;;;;;2.17;0.68;;;18.40;99.90;;;;;;4350215;28;656373;-65
2022/08/08 06:17:07;;;;;;;4.33;1.03;;;18.60;99.40;;;;;;4373316;28;657341;-64
2022/08/08 06:19:54;;;;;;;5.07;0.70;;;18.60;97.90;;;;;;4373979;28;657425;-64
2022/08/08 06:22:41;;;;;;;4.43;0.97;;;18.60;97.10;;;;;;4347509;28;657016;-64
2022/08/08 06:25:29;;;;;;;3.30;0.80;;;18.60;97.00;;;;;;4365102;28;657206;-64
2022/08/08 06:28:18;;;;;;;2.90;0.93;;;18.70;96.40;;;;;;4328815;28;656295;-64
2022/08/08 06:31:06;;;;;;;4.13;0.77;;;18.90;97.00;;;;;;4332877;28;656781;-64
2022/08/08 06:33:56;;;;;;;3.57;0.90;;;18.90;95.40;;;;;;4373340;28;656403;-65
2022/08/08 06:36:44;;;;;;;1.40;0.70;;;18.90;94.60;;;;;;4345184;28;656610;-65
2022/08/08 06:39:31;;;;;;;2.40;0.70;;;18.90;95.20;;;;;;4338874;28;656380;-65
2022/08/08 06:42:18;;;;;;;3.13;1.00;;;19.10;95.60;;;;;;4369723;28;656951;-64
2022/08/08 06:45:08;;;;;;;4.20;0.90;;;19.30;94.10;;;;;;4347742;28;656417;-65
2022/08/08 06:47:55;;;;;;;3.73;1.00;;;19.40;93.50;;;;;;4358781;28;656888;-65
2022/08/08 06:50:42;;;;;;;4.27;0.93;;;19.60;93.10;;;;;;4373865;28;656410;-65
2022/08/08 06:53:30;;;;;;;4.83;0.90;;;19.60;92.20;;;;;;4371247;28;657423;-64
2022/08/08 06:56:17;;;;;;;6.73;0.80;;;19.60;93.20;;;;;;4338114;28;657384;-65
2022/08/08 06:59:04;;;;;;;1.33;0.70;;;19.50;91.60;;;;;;4361863;28;656511;-64
2022/08/08 07:01:58;;;;;;;4.13;1.00;;;19.40;91.30;;;;;;4333417;28;656831;-64
2022/08/08 07:04:50;;;;;;;1.53;0.70;;;19.30;90.80;;;;;;4333842;28;656339;-65
2022/08/08 07:07:46;;;;;;;2.43;0.77;;;19.40;90.60;;;;;;4347893;28;657940;-64
2022/08/08 07:10:35;;;;;;;1.87;0.80;;;19.50;90.10;;;;;;4346915;28;657340;-64
2022/08/08 07:13:22;;;;;;;2.60;0.97;;;19.70;90.20;;;;;;4341758;28;657433;-64
2022/08/08 07:16:14;;;;;;;3.20;0.90;;;19.70;90.10;;;;;;4368254;28;657190;-64
2022/08/08 07:19:06;;;;;;;3.13;0.70;;;19.90;89.00;;;;;;4330943;28;656957;-65
2022/08/08 07:21:56;;;;;;;3.23;0.80;;;20.10;90.10;;;;;;4346342;28;658422;-64
2022/08/08 07:24:44;;;;;;;4.50;0.97;;;20.30;89.00;;;;;;4337022;28;657643;-64
2022/08/08 07:27:35;;;;;;;2.97;0.90;;;20.50;89.40;;;;;;4331093;28;656459;-65
2022/08/08 07:30:22;;;;;;;1.63;0.77;;;20.60;89.60;;;;;;4349402;28;657457;-64
2022/08/08 07:33:10;;;;;;;3.90;0.70;;;20.80;87.10;;;;;;4366826;28;656291;-64
2022/08/08 07:35:59;;;;;;;3.50;0.70;;;21.10;87.00;;;;;;4327842;28;657809;-65
2022/08/08 07:38:47;;;;;;;2.33;0.90;;;21.20;82.60;;;;;;4335705;28;656621;-64
2022/08/08 07:41:35;;;;;;;1.50;0.70;;;21.20;80.50;;;;;;4360349;28;656647;-65
2022/08/08 07:44:22;;;;;;;3.20;0.70;;;21.10;82.20;;;;;;4347722;28;656860;-64
2022/08/08 07:47:09;;;;;;;2.90;0.67;;;21.10;82.80;;;;;;4368061;28;656967;-64
2022/08/08 07:49:56;;;;;;;1.83;0.67;;;21.40;83.10;;;;;;4350556;28;656927;-65
2022/08/08 07:52:47;;;;;;;2.43;0.90;;;21.60;81.70;;;;;;4365346;28;655970;-64
2022/08/08 07:55:34;;;;;;;3.77;0.70;;;21.70;78.40;;;;;;4337360;28;656829;-64
2022/08/08 07:58:24;;;;;;;2.63;0.83;;;21.70;80.30;;;;;;4334247;28;656442;-64
2022/08/08 08:01:14;;;;;;;4.80;0.70;;;21.80;80.50;;;;;;4357181;28;656917;-64
2022/08/08 08:04:03;;;;;;;9.83;1.87;;;21.80;80.40;;;;;;4349139;28;656660;-65
2022/08/08 08:06:50;;;;;;;1.13;0.67;;;21.80;78.20;;;;;;4344240;28;656670;-65
2022/08/08 08:09:40;;;;;;;4.90;0.80;;;21.70;78.80;;;;;;4370171;28;658541;-64
2022/08/08 08:12:28;;;;;;;5.03;0.83;;;21.90;76.60;;;;;;4346653;28;656698;-65
2022/08/08 08:15:16;;;;;;;2.60;0.83;;;22.10;76.80;;;;;;4363692;28;656822;-66
2022/08/08 08:18:03;;;;;;;3.97;1.00;;;22.20;75.60;;;;;;4377162;28;656705;-64
2022/08/08 08:20:51;;;;;;;4.07;0.80;;;22.10;75.80;;;;;;4361511;28;656493;-66
2022/08/08 08:23:39;;;;;;;3.73;0.80;;;22.60;75.20;;;;;;4368186;28;656636;-64
2022/08/08 08:26:27;;;;;;;2.20;0.90;;;22.90;73.40;;;;;;4349523;28;656557;-65
2022/08/08 08:29:14;;;;;;;3.93;0.90;;;23.10;75.00;;;;;;4365027;28;657146;-64
2022/08/08 08:32:01;;;;;;;3.90;0.93;;;23.20;70.80;;;;;;4348810;28;657221;-64
2022/08/08 08:34:51;;;;;;;5.03;1.00;;;23.20;69.40;;;;;;4374600;28;656407;-64
2022/08/08 08:37:38;;;;;;;3.70;1.00;;;23.40;72.80;;;;;;4350809;28;657218;-65
2022/08/08 08:40:25;;;;;;;4.13;1.00;;;23.40;70.50;;;;;;4359118;28;656920;-66
2022/08/08 08:43:14;;;;;;;2.50;0.90;;;23.60;72.40;;;;;;4373173;28;656683;-65
2022/08/08 08:46:01;;;;;;;3.03;1.00;;;23.70;73.40;;;;;;4350173;28;656258;-65
2022/08/08 08:48:48;;;;;;;2.90;1.07;;;23.80;70.20;;;;;;4367239;28;657633;-64
2022/08/08 08:51:40;;;;;;;3.33;1.20;;;24.00;71.00;;;;;;4350574;28;656326;-66
2022/08/08 08:54:27;;;;;;;5.40;1.07;;;24.30;72.00;;;;;;4349191;28;658176;-65
2022/08/08 08:57:14;;;;;;;4.80;1.07;;;24.00;71.60;;;;;;4373644;28;656688;-64
2022/08/08 09:00:03;;;;;;;2.17;1.00;;;24.20;67.00;;;;;;4349124;28;656399;-65
2022/08/08 09:02:50;;;;;;;2.93;1.10;;;24.40;69.20;;;;;;4347620;28;656519;-65
2022/08/08 09:05:39;;;;;;;4.10;0.93;;;24.90;67.10;;;;;;4366221;28;657317;-66
2022/08/08 09:08:27;;;;;;;2.57;1.00;;;24.90;66.70;;;;;;4338476;28;657956;-65
2022/08/08 09:11:14;;;;;;;5.28;0.88;;;24.50;65.90;;;;;;4362279;28;657118;-65
2022/08/08 09:14:01;;;;;;;5.57;0.93;;;24.60;65.90;;;;;;4338541;28;656062;-64
2022/08/08 09:16:50;;;;;;;1.57;0.80;;;24.50;65.00;;;;;;4366960;28;656863;-65
2022/08/08 09:19:37;;;;;;;4.00;0.93;;;24.60;63.60;;;;;;4340520;28;657303;-65
2022/08/08 09:22:25;;;;;;;3.70;0.80;;;24.90;64.10;;;;;;4363271;28;656248;-64
2022/08/08 09:25:12;;;;;;;2.93;1.00;;;24.60;63.20;;;;;;4342819;28;658249;-65
2022/08/08 09:27:59;;;;;;;3.65;1.05;;;24.30;63.30;;;;;;4360793;28;656379;-65
2022/08/08 09:30:47;;;;;;;2.25;0.80;;;24.50;65.80;;;;;;4348615;28;656329;-65
2022/08/08 09:33:35;;;;;;;2.22;1.10;;;25.30;61.50;;;;;;4368389;28;656623;-64
2022/08/08 09:36:23;;;;;;;3.70;0.82;;;25.70;60.70;;;;;;4347743;28;657461;-65
2022/08/08 09:39:10;;;;;;;3.25;0.93;;;25.80;58.20;;;;;;4353849;28;656564;-65
2022/08/08 09:42:01;;;;;;;1.63;0.77;;;25.60;59.30;;;;;;4366654;28;656853;-65
2022/08/08 09:44:54;;;;;;;4.95;0.80;;;25.80;61.70;;;;;;4340277;28;657332;-65
2022/08/08 09:47:42;;;;;;;3.45;0.60;;;26.50;58.20;;;;;;4320433;28;658438;-65
2022/08/08 09:50:31;;;;;;;2.60;0.80;;;26.70;56.10;;;;;;4365819;28;656351;-65
2022/08/08 09:53:19;;;;;;;4.22;0.77;;;26.90;56.20;;;;;;4365515;28;657003;-65
2022/08/08 09:56:07;;;;;;;2.83;0.73;;;26.50;55.60;;;;;;4353109;28;657455;-66
2022/08/08 09:58:57;;;;;;;3.47;0.98;;;26.60;58.40;;;;;;4370214;28;658437;-65
2022/08/08 10:01:44;;;;;;;3.65;0.80;;;26.50;55.20;;;;;;4346693;28;657687;-65
2022/08/08 10:04:32;;;;;;;3.97;0.70;;;26.90;54.60;;;;;;4346362;28;656261;-65
2022/08/08 10:07:22;;;;;;;2.70;1.17;;;27.10;55.80;;;;;;4359631;28;656549;-66
2022/08/08 10:10:09;;;;;;;4.30;1.00;;;26.30;54.80;;;;;;4369883;28;657229;-65
2022/08/08 10:12:56;;;;;;;3.53;0.90;;;26.10;57.70;;;;;;4356490;28;656753;-65
2022/08/08 10:15:45;;;;;;;7.53;1.00;;;26.30;56.70;;;;;;4372857;28;658577;-65
2022/08/08 10:18:33;;;;;;;10.38;1.17;;;26.50;56.90;;;;;;4348670;28;657310;-66
2022/08/08 10:21:20;;;;;;;3.53;1.00;;;26.70;56.00;;;;;;4351996;28;657600;-66
2022/08/08 10:24:10;;;;;;;5.15;0.95;;;27.40;57.10;;;;;;4374072;28;656689;-65
2022/08/08 10:26:59;;;;;;;9.57;1.00;;;27.30;53.10;;;;;;4349014;28;657543;-65
2022/08/08 10:29:51;;;;;;;6.22;0.80;;;27.10;55.90;;;;;;4341975;28;656896;-65
2022/08/08 10:32:40;;;;;;;1.58;0.85;;;26.80;56.20;;;;;;4339126;28;656869;-64
2022/08/08 10:35:29;;;;;;;1.73;0.70;;;26.60;55.30;;;;;;4343875;28;658033;-65
2022/08/08 10:38:16;;;;;;;3.60;0.80;;;26.30;56.80;;;;;;4344189;28;656991;-65
2022/08/08 10:41:05;;;;;;;1.70;0.90;;;26.70;55.90;;;;;;4368636;28;657223;-65
2022/08/08 10:43:52;;;;;;;2.00;0.85;;;26.80;56.60;;;;;;4348576;28;657777;-65
2022/08/08 10:46:39;;;;;;;2.80;0.93;;;26.70;54.90;;;;;;4351841;28;656585;-65
2022/08/08 10:49:26;;;;;;;1.45;0.85;;;27.00;54.20;;;;;;4350050;28;656846;-65
2022/08/08 10:52:23;;;;;;;4.13;0.93;;;26.80;54.30;;;;;;4364740;28;658346;-66
2022/08/08 10:55:12;;;;;;;6.53;0.90;;;27.10;55.40;;;;;;4329305;28;656604;-65
2022/08/08 10:58:03;;;;;;;3.17;0.90;;;26.70;56.10;;;;;;4370205;28;656175;-65
2022/08/08 11:00:50;;;;;;;2.45;0.95;;;27.10;53.70;;;;;;4340133;28;657119;-65
2022/08/08 11:03:42;;;;;;;3.10;0.93;;;26.30;54.40;;;;;;4364328;28;657849;-66
2022/08/08 11:06:30;;;;;;;2.35;0.80;;;26.60;55.80;;;;;;4344000;28;658025;-64
2022/08/08 11:09:17;;;;;;;5.72;1.05;;;26.40;56.00;;;;;;4345686;28;656969;-65
2022/08/08 11:12:05;;;;;;;2.80;1.02;;;26.60;56.60;;;;;;4364626;28;657719;-65
2022/08/08 11:14:55;;;;;;;2.85;0.80;;;26.70;55.40;;;;;;4341694;28;657705;-64
2022/08/08 11:17:42;;;;;;;3.50;0.85;;;26.60;54.00;;;;;;4340554;28;657903;-65
2022/08/08 11:20:30;;;;;;;5.47;0.93;;;26.80;54.60;;;;;;4365573;28;657114;-66
2022/08/08 11:23:18;;;;;;;1.67;1.08;;;26.70;54.90;;;;;;4365672;28;658428;-65
2022/08/08 11:26:05;;;;;;;1.95;0.82;;;26.50;56.30;;;;;;4358868;28;656325;-66
2022/08/08 11:28:53;;;;;;;4.75;1.10;;;26.60;56.20;;;;;;4370854;28;658556;-65
2022/08/08 11:31:48;;;;;;;5.15;1.10;;;27.00;56.90;;;;;;4363380;28;657355;-65
2022/08/08 11:34:36;;;;;;;4.57;1.20;;;27.00;55.00;;;;;;4339409;28;656534;-65
2022/08/08 11:37:23;;;;;;;6.68;1.60;;;27.00;57.50;;;;;;4371682;28;657174;-65
2022/08/08 11:40:12;;;;;;;5.22;1.35;;;27.20;54.40;;;;;;4348809;28;656759;-66
2022/08/08 11:42:59;;;;;;;3.85;1.40;;;27.30;54.60;;;;;;4374641;28;656969;-64
2022/08/08 11:45:46;;;;;;;8.25;1.15;;;26.80;55.10;;;;;;4354788;28;657126;-65
2022/08/08 11:48:34;;;;;;;4.00;0.95;;;26.30;56.20;;;;;;4376656;28;657602;-65
2022/08/08 11:51:23;;;;;;;5.93;1.10;;;26.50;56.80;;;;;;4349302;28;657398;-65
2022/08/08 11:54:10;;;;;;;5.22;1.15;;;26.40;56.10;;;;;;4358695;28;656798;-65
2022/08/08 11:57:08;;;;;;;5.03;1.23;;;26.50;57.00;;;;;;4371365;28;656754;-65
2022/08/08 11:59:57;;;;;;;5.30;1.10;;;26.10;56.30;;;;;;4333422;28;656537;-64
2022/08/08 12:02:48;;;;;;;6.00;1.10;;;26.10;58.00;;;;;;4379348;28;657244;-65
2022/08/08 12:05:37;;;;;;;3.13;1.10;;;25.90;56.40;;;;;;4334406;28;656339;-65
2022/08/08 12:08:32;;;;;;;6.63;1.20;;;25.70;60.60;;;;;;4373319;28;656900;-65
2022/08/08 12:11:19;;;;;;;2.60;0.88;;;25.40;57.90;;;;;;4350984;28;656364;-64
2022/08/08 12:14:06;;;;;;;4.30;1.20;;;25.80;58.50;;;;;;4350267;28;656636;-64
2022/08/08 12:16:54;;;;;;;2.72;0.82;;;26.80;58.40;;;;;;4372467;28;657042;-66
2022/08/08 12:19:41;;;;;;;4.72;1.48;;;27.30;60.20;;;;;;4356073;28;656512;-65
2022/08/08 12:22:30;;;;;;;3.17;1.10;;;27.50;56.70;;;;;;4375778;28;656733;-64
2022/08/08 12:25:22;;;;;;;2.78;1.05;;;27.40;56.50;;;;;;4342004;28;658368;-64
2022/08/08 12:28:11;;;;;;;1.70;0.80;;;27.80;53.80;;;;;;4342048;28;656188;-64
2022/08/08 12:31:04;;;;;;;1.52;1.00;;;28.00;52.80;;;;;;4341717;28;657097;-65
2022/08/08 12:33:52;;;;;;;2.67;1.10;;;28.40;51.60;;;;;;4327980;28;657942;-64
2022/08/08 12:36:39;;;;;;;1.27;0.90;;;28.40;54.40;;;;;;4381447;28;656110;-64
2022/08/08 12:39:28;;;;;;;7.30;1.10;;;28.10;52.30;;;;;;4353326;28;656526;-64
2022/08/08 12:42:15;;;;;;;2.15;1.10;;;28.90;51.60;;;;;;4353828;28;657197;-66
2022/08/08 12:45:04;;;;;;;5.80;1.10;;;29.40;52.80;;;;;;4375014;28;657485;-64
2022/08/08 12:47:59;;;;;;;3.95;0.98;;;29.10;48.80;;;;;;4354718;28;656754;-65
2022/08/08 12:50:48;;;;;;;2.63;1.00;;;28.60;51.70;;;;;;4329201;28;657549;-64
2022/08/08 12:53:35;;;;;;;2.95;1.00;;;29.00;50.60;;;;;;4362923;28;657277;-65
2022/08/08 12:56:31;;;;;;;3.15;1.00;;;29.20;52.50;;;;;;4373406;28;656696;-64
2022/08/08 12:59:21;;;;;;;5.28;1.00;;;28.90;51.90;;;;;;4352518;28;657348;-64
2022/08/08 13:02:08;;;;;;;12.85;0.90;;;29.00;51.30;;;;;;4351585;28;657660;-64
2022/08/08 13:04:56;;;;;;;6.90;1.27;;;29.60;50.50;;;;;;4350706;28;657844;-64
2022/08/08 13:07:43;;;;;;;1.90;0.90;;;29.00;50.60;;;;;;4369954;28;657393;-64
2022/08/08 13:10:31;;;;;;;6.70;1.08;;;28.90;52.50;;;;;;4355677;28;656356;-64
2022/08/08 13:13:28;;;;;;;6.15;1.27;;;27.80;51.30;;;;;;4364016;28;656980;-64
2022/08/08 13:16:19;;;;;;;2.53;1.10;;;27.90;51.80;;;;;;4332117;28;656498;-65
2022/08/08 13:19:07;;;;;;;3.22;1.05;;;28.50;52.50;;;;;;4350218;28;656961;-64
2022/08/08 13:21:54;;;;;;;5.35;0.98;;;28.50;51.30;;;;;;4377587;28;656556;-64
2022/08/08 13:24:41;;;;;;;2.75;1.02;;;28.30;51.50;;;;;;4351963;28;656488;-64
2022/08/08 13:27:29;;;;;;;4.40;0.80;;;28.40;51.40;;;;;;4369490;28;657030;-64
2022/08/08 13:30:18;;;;;;;3.90;0.90;;;28.70;51.90;;;;;;4349779;28;656731;-64
2022/08/08 13:33:05;;;;;;;2.15;1.10;;;28.50;52.50;;;;;;4364553;28;656456;-65
2022/08/08 13:35:52;;;;;;;4.03;1.20;;;28.60;52.10;;;;;;4377658;28;657156;-64
2022/08/08 13:38:40;;;;;;;3.83;1.00;;;28.70;51.10;;;;;;4372536;28;657032;-65
2022/08/08 13:41:28;;;;;;;3.03;1.13;;;28.90;50.00;;;;;;4374195;28;658406;-65
2022/08/08 13:44:15;;;;;;;2.80;1.10;;;28.60;50.60;;;;;;4338099;28;656568;-64
2022/08/08 13:47:04;;;;;;;4.72;1.30;;;27.50;51.30;;;;;;4376073;28;656926;-65
2022/08/08 13:49:57;;;;;;;4.88;1.10;;;27.90;52.80;;;;;;4348948;28;656874;-64
2022/08/08 13:52:46;;;;;;;9.80;1.35;;;28.00;52.40;;;;;;4350642;28;656982;-65
2022/08/08 13:55:33;;;;;;;7.50;1.55;;;28.40;50.80;;;;;;4355694;28;657610;-65
2022/08/08 13:58:21;;;;;;;4.32;1.10;;;28.90;50.40;;;;;;4334113;28;656618;-64
2022/08/08 14:01:12;;;;;;;2.58;1.15;;;29.00;50.90;;;;;;4346977;28;657290;-64
2022/08/08 14:04:01;;;;;;;4.10;1.20;;;29.10;49.60;;;;;;4346091;28;656667;-64
2022/08/08 14:06:48;;;;;;;2.00;1.00;;;29.40;49.00;;;;;;4343536;28;656577;-64
2022/08/08 14:09:39;;;;;;;2.60;0.98;;;29.70;50.50;;;;;;4350598;28;656978;-64
2022/08/08 14:12:26;;;;;;;7.15;1.40;;;30.10;48.40;;;;;;4346069;28;656504;-64
2022/08/08 14:15:23;;;;;;;3.83;1.10;;;29.80;49.20;;;;;;4365435;28;657246;-64
2022/08/08 14:18:11;;;;;;;8.15;1.27;;;30.30;48.60;;;;;;4326684;28;656673;-64
2022/08/08 14:21:03;;;;;;;7.43;1.35;;;29.70;49.10;;;;;;4367911;28;657359;-63
2022/08/08 14:23:52;;;;;;;9.35;1.30;;;29.30;48.90;;;;;;4329122;28;656928;-65
2022/08/08 14:26:41;;;;;;;5.78;1.20;;;29.20;50.10;;;;;;4365032;28;656602;-64
2022/08/08 14:29:28;;;;;;;5.15;1.13;;;29.60;48.60;;;;;;4334741;28;657623;-63
2022/08/08 14:32:16;;;;;;;3.08;1.23;;;29.30;48.90;;;;;;4343760;28;656672;-64
2022/08/08 14:35:04;;;;;;;7.20;1.52;;;28.90;49.80;;;;;;4362574;28;657555;-64
2022/08/08 14:37:53;;;;;;;11.48;2.10;;;28.80;49.50;;;;;;4340107;28;656667;-65
2022/08/08 14:40:40;;;;;;;7.25;1.80;;;28.60;50.70;;;;;;4344865;28;657765;-65
2022/08/08 14:43:28;;;;;;;8.65;1.38;;;28.00;50.60;;;;;;4363823;28;657824;-65
2022/08/08 14:46:15;;;;;;;8.23;2.38;;;27.80;51.50;;;;;;4348757;28;656554;-65